createdAt,value
2019-01-26T00:01:02.116Z,85.11
2019-01-26T00:02:09.488Z,85.08
2019-01-26T00:03:14.233Z,85.19
2019-01-26T00:04:19.035Z,85.24
2019-01-26T00:05:23.823Z,85.22
2019-01-26T00:06:28.635Z,85.18
2019-01-26T00:07:33.394Z,85.22
2019-01-26T00:08:38.574Z,85.34
2019-01-26T00:09:43.707Z,85.32
2019-01-26T00:10:48.609Z,85.25
2019-01-26T00:11:53.669Z,85.35
2019-01-26T00:12:58.926Z,85.33
2019-01-26T00:14:04.101Z,85.32
2019-01-26T00:15:08.996Z,85.28
2019-01-26T00:16:17.182Z,85.27
2019-01-26T00:17:20.412Z,85.27
2019-01-26T00:18:25.868Z,85.26
2019-01-26T00:19:30.646Z,85.28
2019-01-26T00:20:36.560Z,85.23
2019-01-26T00:21:41.720Z,85.17
2019-01-26T00:22:47.225Z,85.24
2019-01-26T00:23:51.824Z,85.26
2019-01-26T00:24:56.634Z,85.19
2019-01-26T00:26:01.114Z,85.19
2019-01-26T00:27:05.905Z,85.21
2019-01-26T00:28:10.393Z,85.26
2019-01-26T00:29:15.878Z,85.24
2019-01-26T00:30:20.653Z,85.24
2019-01-26T00:31:25.796Z,85.30
2019-01-26T00:32:30.925Z,85.32
2019-01-26T00:33:35.425Z,85.34
2019-01-26T00:34:40.321Z,85.42
2019-01-26T00:35:45.138Z,85.32
2019-01-26T00:36:49.689Z,85.40
2019-01-26T00:37:54.496Z,85.40
2019-01-26T00:38:59.799Z,85.34
2019-01-26T00:40:05.690Z,85.27
2019-01-26T00:41:11.308Z,85.30
2019-01-26T00:42:16.416Z,85.30
2019-01-26T00:43:21.258Z,85.37
2019-01-26T00:44:26.822Z,85.38
2019-01-26T00:45:31.606Z,85.46
2019-01-26T00:46:36.388Z,85.45
2019-01-26T00:47:40.912Z,85.44
2019-01-26T00:48:46.314Z,85.49
2019-01-26T00:49:51.483Z,85.47
2019-01-26T00:50:56.565Z,85.46
2019-01-26T00:52:02.118Z,85.37
2019-01-26T00:53:06.695Z,85.42
2019-01-26T00:54:13.648Z,85.49
2019-01-26T00:55:18.411Z,85.50
2019-01-26T00:56:23.183Z,85.49
2019-01-26T00:57:28.272Z,85.51
2019-01-26T00:58:33.077Z,85.55
2019-01-26T00:59:38.397Z,85.59
2019-01-26T01:00:43.463Z,85.61
2019-01-26T01:01:48.540Z,85.64
2019-01-26T01:02:53.769Z,85.60
2019-01-26T01:03:58.556Z,85.53
2019-01-26T01:05:03.318Z,85.41
2019-01-26T01:06:07.802Z,85.46
2019-01-26T01:07:12.974Z,85.51
2019-01-26T01:08:17.715Z,85.52
2019-01-26T01:09:22.526Z,85.60
2019-01-26T01:10:27.284Z,85.59
2019-01-26T01:11:32.179Z,85.56
2019-01-26T01:12:37.260Z,85.60
2019-01-26T01:13:42.260Z,85.69
2019-01-26T01:14:47.904Z,85.68
2019-01-26T01:15:52.698Z,85.68
2019-01-26T01:16:57.766Z,85.61
2019-01-26T01:18:02.547Z,85.58
2019-01-26T01:19:07.357Z,85.78
2019-01-26T01:20:11.891Z,85.84
2019-01-26T01:21:16.665Z,85.80
2019-01-26T01:22:21.530Z,85.76
2019-01-26T01:23:26.746Z,85.76
2019-01-26T01:24:31.517Z,85.80
2019-01-26T01:25:36.696Z,85.82
2019-01-26T01:26:41.458Z,85.86
2019-01-26T01:27:47.270Z,85.85
2019-01-26T01:28:51.816Z,85.90
2019-01-26T01:29:57.043Z,85.93
2019-01-26T01:31:01.790Z,85.94
2019-01-26T01:32:06.564Z,85.96
2019-01-26T01:33:13.198Z,85.93
2019-01-26T01:34:18.110Z,85.90
2019-01-26T01:35:22.629Z,85.86
2019-01-26T01:36:27.746Z,85.85
2019-01-26T01:37:32.526Z,85.82
2019-01-26T01:38:37.331Z,85.85
2019-01-26T01:39:42.122Z,85.91
2019-01-26T01:40:47.298Z,85.96
2019-01-26T01:41:52.082Z,85.93
2019-01-26T01:42:56.900Z,85.97
2019-01-26T01:44:01.686Z,85.93
2019-01-26T01:45:07.801Z,86.03
2019-01-26T01:46:13.023Z,86.05
2019-01-26T01:47:18.104Z,86.00
2019-01-26T01:48:22.930Z,85.98
2019-01-26T01:49:27.716Z,85.87
2019-01-26T01:50:32.474Z,85.91
2019-01-26T01:51:37.277Z,85.87
2019-01-26T01:52:42.154Z,85.89
2019-01-26T01:53:46.948Z,85.87
2019-01-26T01:54:52.080Z,85.95
2019-01-26T01:55:57.692Z,85.92
2019-01-26T01:57:03.206Z,85.85
2019-01-26T01:58:08.001Z,85.88
2019-01-26T01:59:12.862Z,85.98
2019-01-26T02:00:19.599Z,85.95
2019-01-26T02:01:24.725Z,85.95
2019-01-26T02:02:29.942Z,85.92
2019-01-26T02:03:35.535Z,85.92
2019-01-26T02:04:40.404Z,85.91
2019-01-26T02:05:45.316Z,85.95
2019-01-26T02:06:50.133Z,85.96
2019-01-26T02:07:54.989Z,86.01
2019-01-26T02:09:00.170Z,86.02
2019-01-26T02:10:05.567Z,86.06
2019-01-26T02:11:10.397Z,86.09
2019-01-26T02:12:16.033Z,86.16
2019-01-26T02:13:21.289Z,86.16
2019-01-26T02:14:26.179Z,86.13
2019-01-26T02:15:31.401Z,86.15
2019-01-26T02:16:36.306Z,86.15
2019-01-26T02:17:41.356Z,86.13
2019-01-26T02:18:46.626Z,86.12
2019-01-26T02:19:51.741Z,86.12
2019-01-26T02:20:56.511Z,86.18
2019-01-26T02:22:01.642Z,86.25
2019-01-26T02:23:06.903Z,86.22
2019-01-26T02:24:11.789Z,86.22
2019-01-26T02:25:16.617Z,86.22
2019-01-26T02:26:21.391Z,86.22
2019-01-26T02:27:26.274Z,86.20
2019-01-26T02:28:31.100Z,86.19
2019-01-26T02:29:36.418Z,86.19
2019-01-26T02:30:41.556Z,86.18
2019-01-26T02:31:46.314Z,86.04
2019-01-26T02:32:51.096Z,86.07
2019-01-26T02:33:55.915Z,86.07
2019-01-26T02:35:00.766Z,86.11
2019-01-26T02:36:05.547Z,86.05
2019-01-26T02:37:10.875Z,86.07
2019-01-26T02:38:15.691Z,86.14
2019-01-26T02:39:20.529Z,86.14
2019-01-26T02:40:25.338Z,86.19
2019-01-26T02:41:30.732Z,86.15
2019-01-26T02:42:36.069Z,86.17
2019-01-26T02:43:41.979Z,86.08
2019-01-26T02:44:46.896Z,86.05
2019-01-26T02:45:52.487Z,86.11
2019-01-26T02:46:58.023Z,86.03
2019-01-26T02:48:03.584Z,86.05
2019-01-26T02:49:09.757Z,86.08
2019-01-26T02:50:16.278Z,86.07
2019-01-26T02:51:21.076Z,86.00
2019-01-26T02:52:26.388Z,86.07
2019-01-26T02:53:32.383Z,86.01
2019-01-26T02:54:37.900Z,85.97
2019-01-26T02:55:42.712Z,85.96
2019-01-26T02:56:47.849Z,85.94
2019-01-26T02:57:52.772Z,85.93
2019-01-26T02:58:57.563Z,85.96
2019-01-26T03:00:02.452Z,85.91
2019-01-26T03:01:07.687Z,85.88
2019-01-26T03:02:12.781Z,85.93
2019-01-26T03:03:18.406Z,85.92
2019-01-26T03:04:23.200Z,85.93
2019-01-26T03:05:28.026Z,85.88
2019-01-26T03:06:33.179Z,85.87
2019-01-26T03:07:38.696Z,85.93
2019-01-26T03:08:43.512Z,85.98
2019-01-26T03:09:48.374Z,85.95
2019-01-26T03:10:53.203Z,85.91
2019-01-26T03:11:57.719Z,85.91
2019-01-26T03:13:02.274Z,85.98
2019-01-26T03:14:07.972Z,85.93
2019-01-26T03:15:15.421Z,85.89
2019-01-26T03:16:20.245Z,85.88
2019-01-26T03:17:25.564Z,85.91
2019-01-26T03:18:31.071Z,85.88
2019-01-26T03:19:35.860Z,85.92
2019-01-26T03:20:41.108Z,85.92
2019-01-26T03:21:46.304Z,85.90
2019-01-26T03:22:51.142Z,85.92
2019-01-26T03:23:56.229Z,85.92
2019-01-26T03:25:01.773Z,85.89
2019-01-26T03:26:07.533Z,85.88
2019-01-26T03:27:13.345Z,85.93
2019-01-26T03:28:18.519Z,85.96
2019-01-26T03:29:24.319Z,85.98
2019-01-26T03:30:29.114Z,85.92
2019-01-26T03:31:34.498Z,85.98
2019-01-26T03:32:39.471Z,85.96
2019-01-26T03:33:44.649Z,85.92
2019-01-26T03:34:50.175Z,85.88
2019-01-26T03:35:58.485Z,85.89
2019-01-26T03:37:03.697Z,85.96
2019-01-26T03:38:08.959Z,86.00
2019-01-26T03:39:14.294Z,86.04
2019-01-26T03:40:20.704Z,86.10
2019-01-26T03:41:26.299Z,86.17
2019-01-26T03:42:31.221Z,86.10
2019-01-26T03:43:36.046Z,86.09
2019-01-26T03:44:40.828Z,86.12
2019-01-26T03:45:45.720Z,86.15
2019-01-26T03:46:50.828Z,86.12
2019-01-26T03:47:55.704Z,86.13
2019-01-26T03:49:00.861Z,86.15
2019-01-26T03:50:07.440Z,86.20
2019-01-26T03:51:12.968Z,86.17
2019-01-26T03:52:18.354Z,86.18
2019-01-26T03:53:23.945Z,86.18
2019-01-26T03:54:29.802Z,86.15
2019-01-26T03:55:34.981Z,86.16
2019-01-26T03:56:39.771Z,86.17
2019-01-26T03:57:45.302Z,86.19
2019-01-26T03:58:50.461Z,86.22
2019-01-26T03:59:55.283Z,86.14
2019-01-26T04:01:00.448Z,86.21
2019-01-26T04:02:05.570Z,86.23
2019-01-26T04:03:10.505Z,86.22
2019-01-26T04:04:15.426Z,86.19
2019-01-26T04:05:20.993Z,86.18
2019-01-26T04:06:26.079Z,86.15
2019-01-26T04:07:31.235Z,86.20
2019-01-26T04:08:36.034Z,86.17
2019-01-26T04:09:41.309Z,86.23
2019-01-26T04:10:46.120Z,86.20
2019-01-26T04:11:50.901Z,86.26
2019-01-26T04:12:55.783Z,86.22
2019-01-26T04:14:00.999Z,86.21
2019-01-26T04:15:06.278Z,86.21
2019-01-26T04:16:11.395Z,86.24
2019-01-26T04:17:21.738Z,86.24
2019-01-26T04:18:23.358Z,86.24
2019-01-26T04:19:28.189Z,86.25
2019-01-26T04:20:32.963Z,86.27
2019-01-26T04:21:38.416Z,86.31
2019-01-26T04:22:43.542Z,86.34
2019-01-26T04:23:48.065Z,86.34
2019-01-26T04:24:52.883Z,86.33
2019-01-26T04:25:58.696Z,86.33
2019-01-26T04:27:03.190Z,86.26
2019-01-26T04:28:08.646Z,86.26
2019-01-26T04:29:13.783Z,86.26
2019-01-26T04:30:20.703Z,86.26
2019-01-26T04:31:25.483Z,86.28
2019-01-26T04:32:30.444Z,86.32
2019-01-26T04:33:35.331Z,86.27
2019-01-26T04:34:40.761Z,86.35
2019-01-26T04:35:45.563Z,86.33
2019-01-26T04:36:50.379Z,86.37
2019-01-26T04:37:55.485Z,86.30
2019-01-26T04:39:01.045Z,86.32
2019-01-26T04:40:08.873Z,86.32
2019-01-26T04:41:13.562Z,86.35
2019-01-26T04:42:18.689Z,86.34
2019-01-26T04:43:23.863Z,86.30
2019-01-26T04:44:28.650Z,86.30
2019-01-26T04:45:33.476Z,86.37
2019-01-26T04:46:38.274Z,86.35
2019-01-26T04:47:43.379Z,86.44
2019-01-26T04:48:48.932Z,86.47
2019-01-26T04:49:53.794Z,86.54
2019-01-26T04:50:58.323Z,86.44
2019-01-26T04:52:03.530Z,86.42
2019-01-26T04:53:08.335Z,86.38
2019-01-26T04:54:13.645Z,86.30
2019-01-26T04:55:18.948Z,86.32
2019-01-26T04:56:24.181Z,86.29
2019-01-26T04:57:29.315Z,86.37
2019-01-26T04:58:34.108Z,86.39
2019-01-26T04:59:39.277Z,86.45
2019-01-26T05:00:44.134Z,86.43
2019-01-26T05:01:49.270Z,86.44
2019-01-26T05:02:54.895Z,86.44
2019-01-26T05:03:59.683Z,86.45
2019-01-26T05:05:04.453Z,86.41
2019-01-26T05:06:09.610Z,86.34
2019-01-26T05:07:14.765Z,86.35
2019-01-26T05:08:20.247Z,86.35
2019-01-26T05:09:25.746Z,86.34
2019-01-26T05:10:31.392Z,86.35
2019-01-26T05:11:36.581Z,86.38
2019-01-26T05:12:42.132Z,86.45
2019-01-26T05:13:47.275Z,86.46
2019-01-26T05:14:52.451Z,86.46
2019-01-26T05:15:58.054Z,86.44
2019-01-26T05:17:03.628Z,86.43
2019-01-26T05:18:08.967Z,86.49
2019-01-26T05:19:13.839Z,86.44
2019-01-26T05:20:21.297Z,86.43
2019-01-26T05:21:26.419Z,86.43
2019-01-26T05:22:31.505Z,86.42
2019-01-26T05:23:36.705Z,86.37
2019-01-26T05:24:41.193Z,86.33
2019-01-26T05:25:45.973Z,86.35
2019-01-26T05:26:50.761Z,86.36
2019-01-26T05:27:55.846Z,86.33
2019-01-26T05:29:00.393Z,86.35
2019-01-26T05:30:05.880Z,86.33
2019-01-26T05:31:10.386Z,86.39
2019-01-26T05:32:15.575Z,86.37
2019-01-26T05:33:20.816Z,86.36
2019-01-26T05:34:26.000Z,86.33
2019-01-26T05:35:30.799Z,86.34
2019-01-26T05:36:36.005Z,86.38
2019-01-26T05:37:41.464Z,86.34
2019-01-26T05:38:46.607Z,86.37
2019-01-26T05:39:51.368Z,86.34
2019-01-26T05:40:56.434Z,86.38
2019-01-26T05:42:01.576Z,86.38
2019-01-26T05:43:06.376Z,86.33
2019-01-26T05:44:11.278Z,86.35
2019-01-26T05:45:18.079Z,86.32
2019-01-26T05:46:22.900Z,86.28
2019-01-26T05:47:27.648Z,86.32
2019-01-26T05:48:32.168Z,86.34
2019-01-26T05:49:37.283Z,86.35
2019-01-26T05:50:42.420Z,86.37
2019-01-26T05:51:47.843Z,86.31
2019-01-26T05:52:53.105Z,86.21
2019-01-26T05:53:59.006Z,86.21
2019-01-26T05:55:04.269Z,86.15
2019-01-26T05:56:09.157Z,86.14
2019-01-26T05:57:13.911Z,86.11
2019-01-26T05:58:18.734Z,86.10
2019-01-26T05:59:23.495Z,86.08
2019-01-26T06:00:39.259Z,86.11
2019-01-26T06:01:44.709Z,86.11
2019-01-26T06:02:49.491Z,86.16
2019-01-26T06:03:54.277Z,86.20
2019-01-26T06:04:59.365Z,86.18
2019-01-26T06:06:04.116Z,86.13
2019-01-26T06:07:08.908Z,86.10
2019-01-26T06:08:13.742Z,86.07
2019-01-26T06:09:19.225Z,86.03
2019-01-26T06:10:24.002Z,85.98
2019-01-26T06:11:29.124Z,86.05
2019-01-26T06:12:33.889Z,86.06
2019-01-26T06:13:39.812Z,86.06
2019-01-26T06:14:44.945Z,86.00
2019-01-26T06:15:50.182Z,85.93
2019-01-26T06:16:55.843Z,85.95
2019-01-26T06:18:01.409Z,86.00
2019-01-26T06:19:05.901Z,85.96
2019-01-26T06:20:11.182Z,85.98
2019-01-26T06:21:15.957Z,85.96
2019-01-26T06:22:21.104Z,85.99
2019-01-26T06:23:26.867Z,86.05
2019-01-26T06:24:31.726Z,86.08
2019-01-26T06:25:36.527Z,86.04
2019-01-26T06:26:41.312Z,85.99
2019-01-26T06:27:46.461Z,85.96
2019-01-26T06:28:52.094Z,85.93
2019-01-26T06:29:57.516Z,85.94
2019-01-26T06:31:02.738Z,85.86
2019-01-26T06:32:07.229Z,85.85
2019-01-26T06:33:12.432Z,85.82
2019-01-26T06:34:17.512Z,85.84
2019-01-26T06:35:22.282Z,85.93
2019-01-26T06:36:27.116Z,85.92
2019-01-26T06:37:31.603Z,85.91
2019-01-26T06:38:36.411Z,85.96
2019-01-26T06:39:41.612Z,85.96
2019-01-26T06:40:46.413Z,85.98
2019-01-26T06:41:51.657Z,85.96
2019-01-26T06:42:56.495Z,85.94
2019-01-26T06:44:01.596Z,85.92
2019-01-26T06:45:07.085Z,85.88
2019-01-26T06:46:12.292Z,85.87
2019-01-26T06:47:17.592Z,85.79
2019-01-26T06:48:22.373Z,85.74
2019-01-26T06:49:27.146Z,85.79
2019-01-26T06:50:32.689Z,85.77
2019-01-26T06:51:38.947Z,85.69
2019-01-26T06:52:44.071Z,85.66
2019-01-26T06:53:48.908Z,85.60
2019-01-26T06:54:53.392Z,85.65
2019-01-26T06:55:58.499Z,85.64
2019-01-26T06:57:03.619Z,85.60
2019-01-26T06:58:09.288Z,85.54
2019-01-26T06:59:14.714Z,85.59
2019-01-26T07:00:22.208Z,85.58
2019-01-26T07:01:27.027Z,85.69
2019-01-26T07:02:31.807Z,85.60
2019-01-26T07:03:36.707Z,85.54
2019-01-26T07:04:50.274Z,85.54
2019-01-26T07:06:20.049Z,85.54
2019-01-26T07:07:25.640Z,85.46
2019-01-26T07:08:30.766Z,85.45
2019-01-26T07:09:35.520Z,85.44
2019-01-26T07:10:41.056Z,85.36
2019-01-26T07:11:46.257Z,85.29
2019-01-26T07:12:51.770Z,85.40
2019-01-26T07:13:56.546Z,85.40
2019-01-26T07:15:01.141Z,85.33
2019-01-26T07:16:06.322Z,85.28
2019-01-26T07:17:11.179Z,85.22
2019-01-26T07:18:15.946Z,85.29
2019-01-26T07:19:20.725Z,85.23
2019-01-26T07:20:25.959Z,85.14
2019-01-26T07:21:31.040Z,85.19
2019-01-26T07:22:35.838Z,85.16
2019-01-26T07:23:40.337Z,85.10
2019-01-26T07:24:45.516Z,85.06
2019-01-26T07:25:50.280Z,84.97
2019-01-26T07:26:55.059Z,85.02
2019-01-26T07:27:59.854Z,85.06
2019-01-26T07:29:04.615Z,84.98
2019-01-26T07:30:12.095Z,85.10
2019-01-26T07:31:16.897Z,85.00
2019-01-26T07:32:21.677Z,84.93
2019-01-26T07:33:26.834Z,84.83
2019-01-26T07:34:31.305Z,84.79
2019-01-26T07:35:36.435Z,84.83
2019-01-26T07:36:40.925Z,84.88
2019-01-26T07:37:46.798Z,84.72
2019-01-26T07:38:51.572Z,84.72
2019-01-26T07:39:56.686Z,84.75
2019-01-26T07:41:01.482Z,84.67
2019-01-26T07:42:06.266Z,84.68
2019-01-26T07:43:11.394Z,84.64
2019-01-26T07:44:15.997Z,84.56
2019-01-26T07:45:20.820Z,84.73
2019-01-26T07:46:25.621Z,84.55
2019-01-26T07:47:30.413Z,84.50
2019-01-26T07:48:35.291Z,84.43
2019-01-26T07:49:40.431Z,84.47
2019-01-26T07:50:45.298Z,84.46
2019-01-26T07:51:50.044Z,84.37
2019-01-26T07:52:55.319Z,84.28
2019-01-26T07:53:59.827Z,84.32
2019-01-26T07:55:04.637Z,84.29
2019-01-26T07:56:09.422Z,84.26
2019-01-26T07:57:14.326Z,84.33
2019-01-26T07:58:18.892Z,84.33
2019-01-26T07:59:24.791Z,84.24
2019-01-26T08:00:29.315Z,84.21
2019-01-26T08:01:34.622Z,84.26
2019-01-26T08:02:39.753Z,84.24
2019-01-26T08:03:44.548Z,84.14
2019-01-26T08:04:49.403Z,84.14
2019-01-26T08:05:54.193Z,84.09
2019-01-26T08:06:58.940Z,84.08
2019-01-26T08:08:03.436Z,84.08
2019-01-26T08:09:10.261Z,84.03
2019-01-26T08:10:17.607Z,83.98
2019-01-26T08:11:22.802Z,83.88
2019-01-26T08:12:28.050Z,84.01
2019-01-26T08:13:33.298Z,83.99
2019-01-26T08:14:38.067Z,83.87
2019-01-26T08:15:42.840Z,83.76
2019-01-26T08:16:48.035Z,83.77
2019-01-26T08:17:52.853Z,83.85
2019-01-26T08:18:57.362Z,83.78
2019-01-26T08:20:02.623Z,83.57
2019-01-26T08:21:07.398Z,83.51
2019-01-26T08:22:12.608Z,83.57
2019-01-26T08:23:18.082Z,83.52
2019-01-26T08:24:22.883Z,83.63
2019-01-26T08:25:30.086Z,83.61
2019-01-26T08:26:35.839Z,83.53
2019-01-26T08:27:41.397Z,83.48
2019-01-26T08:28:46.716Z,83.50
2019-01-26T08:29:51.485Z,83.58
2019-01-26T08:30:56.268Z,83.67
2019-01-26T08:32:01.680Z,83.67
2019-01-26T08:33:06.520Z,83.70
2019-01-26T08:34:12.042Z,83.67
2019-01-26T08:35:17.282Z,83.66
2019-01-26T08:36:23.108Z,83.62
2019-01-26T08:37:27.883Z,83.63
2019-01-26T08:38:33.882Z,83.63
2019-01-26T08:39:39.181Z,83.42
2019-01-26T08:40:44.043Z,83.38
2019-01-26T08:41:49.170Z,83.44
2019-01-26T08:42:54.717Z,83.51
2019-01-26T08:43:59.531Z,83.47
2019-01-26T08:45:04.553Z,83.42
2019-01-26T08:46:10.032Z,83.47
2019-01-26T08:47:15.138Z,83.40
2019-01-26T08:48:20.253Z,83.30
2019-01-26T08:49:25.406Z,83.28
2019-01-26T08:50:30.475Z,83.22
2019-01-26T08:51:35.247Z,83.05
2019-01-26T08:52:40.044Z,83.20
2019-01-26T08:53:44.824Z,83.08
2019-01-26T08:54:50.545Z,82.91
2019-01-26T08:55:55.827Z,83.09
2019-01-26T08:57:00.594Z,82.88
2019-01-26T08:58:05.353Z,82.72
2019-01-26T08:59:11.410Z,82.70
2019-01-26T09:00:19.258Z,82.60
2019-01-26T09:01:24.289Z,82.52
2019-01-26T09:02:51.211Z,82.31
2019-01-26T09:04:24.409Z,82.29
2019-01-26T09:05:32.301Z,82.10
2019-01-26T09:06:40.204Z,82.18
2019-01-26T09:07:45.515Z,82.22
2019-01-26T09:08:51.286Z,82.37
2019-01-26T09:09:56.122Z,82.19
2019-01-26T09:11:01.349Z,82.25
2019-01-26T09:12:06.321Z,82.37
2019-01-26T09:13:12.057Z,82.39
2019-01-26T09:14:16.858Z,82.32
2019-01-26T09:15:22.561Z,82.40
2019-01-26T09:16:27.114Z,82.36
2019-01-26T09:17:32.480Z,82.52
2019-01-26T09:18:39.081Z,82.44
2019-01-26T09:19:43.751Z,82.36
2019-01-26T09:20:49.069Z,82.50
2019-01-26T09:21:53.848Z,82.50
2019-01-26T09:22:59.097Z,82.60
2019-01-26T09:24:03.941Z,82.61
2019-01-26T09:25:09.082Z,82.66
2019-01-26T09:26:14.298Z,82.50
2019-01-26T09:27:19.179Z,82.35
2019-01-26T09:28:24.036Z,82.38
2019-01-26T09:29:28.926Z,82.52
2019-01-26T09:30:33.703Z,82.23
2019-01-26T09:32:00.710Z,82.26
2019-01-26T09:33:08.377Z,82.24
2019-01-26T09:34:13.230Z,82.17
2019-01-26T09:35:18.739Z,82.13
2019-01-26T09:36:23.527Z,82.16
2019-01-26T09:37:28.764Z,82.27
2019-01-26T09:38:33.922Z,82.19
2019-01-26T09:39:38.811Z,82.24
2019-01-26T09:40:44.949Z,82.35
2019-01-26T09:41:49.836Z,82.26
2019-01-26T09:42:54.734Z,82.55
2019-01-26T09:43:59.512Z,82.52
2019-01-26T09:45:04.062Z,82.57
2019-01-26T09:46:09.168Z,82.40
2019-01-26T09:47:14.377Z,82.48
2019-01-26T09:48:19.168Z,82.58
2019-01-26T09:49:23.950Z,82.62
2019-01-26T09:50:28.732Z,82.72
2019-01-26T09:51:33.944Z,82.67
2019-01-26T09:52:38.762Z,82.63
2019-01-26T09:53:45.137Z,82.58
2019-01-26T09:54:51.006Z,82.49
2019-01-26T09:55:56.201Z,82.55
2019-01-26T09:57:01.005Z,82.50
2019-01-26T09:58:06.156Z,82.53
2019-01-26T09:59:11.109Z,82.44
2019-01-26T10:00:18.228Z,82.32
2019-01-26T10:01:22.976Z,82.38
2019-01-26T10:02:28.576Z,82.11
2019-01-26T10:03:33.343Z,81.97
2019-01-26T10:04:38.842Z,81.89
2019-01-26T10:05:43.902Z,81.94
2019-01-26T10:06:48.781Z,81.65
2019-01-26T10:07:53.954Z,81.66
2019-01-26T10:08:58.725Z,81.49
2019-01-26T10:10:03.499Z,81.41
2019-01-26T10:11:08.607Z,81.42
2019-01-26T10:12:14.034Z,81.22
2019-01-26T10:13:19.134Z,81.12
2019-01-26T10:14:23.906Z,81.09
2019-01-26T10:15:29.306Z,81.14
2019-01-26T10:16:34.407Z,81.24
2019-01-26T10:17:45.776Z,81.11
2019-01-26T10:18:53.306Z,80.82
2019-01-26T10:19:53.302Z,80.62
2019-01-26T10:20:58.401Z,80.52
2019-01-26T10:22:02.881Z,80.50
2019-01-26T10:23:08.035Z,80.51
2019-01-26T10:24:12.541Z,80.69
2019-01-26T10:25:17.595Z,80.55
2019-01-26T10:26:22.891Z,80.42
2019-01-26T10:27:27.658Z,80.40
2019-01-26T10:28:32.180Z,80.52
2019-01-26T10:29:36.998Z,80.62
2019-01-26T10:30:51.599Z,80.64
2019-01-26T10:31:56.352Z,80.59
2019-01-26T10:33:01.146Z,80.53
2019-01-26T10:34:05.955Z,80.73
2019-01-26T10:35:10.453Z,80.53
2019-01-26T10:36:21.917Z,80.47
2019-01-26T10:37:29.555Z,80.20
2019-01-26T10:38:36.410Z,80.20
2019-01-26T10:39:44.958Z,80.37
2019-01-26T10:41:07.286Z,80.19
2019-01-26T10:42:24.467Z,79.92
2019-01-26T10:43:30.272Z,79.48
2019-01-26T10:44:35.266Z,79.27
2019-01-26T10:45:39.761Z,79.16
2019-01-26T10:46:44.291Z,79.04
2019-01-26T10:47:49.061Z,78.77
2019-01-26T10:49:00.471Z,78.82
2019-01-26T10:50:00.722Z,79.16
2019-01-26T10:51:05.869Z,79.24
2019-01-26T10:52:10.656Z,79.22
2019-01-26T10:53:15.856Z,79.20
2019-01-26T10:54:21.463Z,79.32
2019-01-26T10:55:26.227Z,79.34
2019-01-26T10:56:31.003Z,79.43
2019-01-26T10:57:35.836Z,79.41
2019-01-26T10:58:40.653Z,79.34
2019-01-26T10:59:45.426Z,79.26
2019-01-26T11:00:50.827Z,79.29
2019-01-26T11:01:56.517Z,79.36
2019-01-26T11:03:01.675Z,79.29
2019-01-26T11:04:06.459Z,79.38
2019-01-26T11:05:11.284Z,79.40
2019-01-26T11:06:16.418Z,79.33
2019-01-26T11:07:21.508Z,79.17
2019-01-26T11:08:26.260Z,78.98
2019-01-26T11:09:31.531Z,78.81
2019-01-26T11:10:37.041Z,78.67
2019-01-26T11:11:42.226Z,78.71
2019-01-26T11:12:46.994Z,78.62
2019-01-26T11:13:52.095Z,78.88
2019-01-26T11:14:56.902Z,78.47
2019-01-26T11:16:02.002Z,78.47
2019-01-26T11:17:07.197Z,78.40
2019-01-26T11:18:11.684Z,78.36
2019-01-26T11:19:16.463Z,78.14
2019-01-26T11:20:21.585Z,78.02
2019-01-26T11:21:26.364Z,77.98
2019-01-26T11:22:31.260Z,77.88
2019-01-26T11:23:36.048Z,78.12
2019-01-26T11:24:40.558Z,78.30
2019-01-26T11:25:45.329Z,78.25
2019-01-26T11:26:50.205Z,78.06
2019-01-26T11:27:54.971Z,78.07
2019-01-26T11:29:00.069Z,78.03
2019-01-26T11:30:05.469Z,77.67
2019-01-26T11:31:12.121Z,77.54
2019-01-26T11:32:16.923Z,77.66
2019-01-26T11:33:21.433Z,77.36
2019-01-26T11:34:26.199Z,77.68
2019-01-26T11:35:31.109Z,77.30
2019-01-26T11:36:35.966Z,77.45
2019-01-26T11:37:40.755Z,77.40
2019-01-26T11:38:45.933Z,77.15
2019-01-26T11:39:57.391Z,77.16
2019-01-26T11:41:02.781Z,77.48
2019-01-26T11:42:07.272Z,76.96
2019-01-26T11:43:12.182Z,76.93
2019-01-26T11:44:17.676Z,77.04
2019-01-26T11:45:59.517Z,77.15
2019-01-26T11:47:06.999Z,77.12
2019-01-26T11:48:19.178Z,76.87
2019-01-26T11:49:23.683Z,76.92
2019-01-26T11:50:42.458Z,76.60
2019-01-26T11:52:06.092Z,76.74
2019-01-26T11:53:11.214Z,76.95
2019-01-26T11:54:18.580Z,77.19
2019-01-26T11:55:30.915Z,77.40
2019-01-26T11:56:45.077Z,77.51
2019-01-26T11:57:50.287Z,77.64
2019-01-26T11:58:55.785Z,77.77
2019-01-26T12:00:25.860Z,77.87
2019-01-26T12:01:48.474Z,77.96
2019-01-26T12:03:12.098Z,78.12
2019-01-26T12:04:38.818Z,78.03
2019-01-26T12:06:02.413Z,77.96
2019-01-26T12:07:12.539Z,77.22
2019-01-26T12:08:17.392Z,76.28
2019-01-26T12:09:22.169Z,76.46
2019-01-26T12:10:26.947Z,75.86
2019-01-26T12:11:31.461Z,75.60
2019-01-26T12:12:36.223Z,75.23
2019-01-26T12:13:41.365Z,75.04
2019-01-26T12:14:45.859Z,74.54
2019-01-26T12:15:50.428Z,73.96
2019-01-26T12:16:55.725Z,73.29
2019-01-26T12:18:00.822Z,72.97
2019-01-26T12:19:05.338Z,72.56
2019-01-26T12:20:12.981Z,73.03
2019-01-26T12:21:17.747Z,72.98
2019-01-26T12:22:22.579Z,73.14
2019-01-26T12:23:27.338Z,73.49
2019-01-26T12:24:32.439Z,73.93
2019-01-26T12:25:37.999Z,74.19
2019-01-26T12:26:42.526Z,73.89
2019-01-26T12:27:48.098Z,74.07
2019-01-26T12:28:52.898Z,74.29
2019-01-26T12:29:57.394Z,74.72
2019-01-26T12:31:02.559Z,75.11
2019-01-26T12:32:07.079Z,75.16
2019-01-26T12:33:11.868Z,75.13
2019-01-26T12:34:16.646Z,75.13
2019-01-26T12:35:21.443Z,75.24
2019-01-26T12:36:26.219Z,75.19
2019-01-26T12:37:30.728Z,75.12
2019-01-26T12:38:35.842Z,75.12
2019-01-26T12:39:40.960Z,75.40
2019-01-26T12:40:45.766Z,75.41
2019-01-26T12:41:51.179Z,75.10
2019-01-26T12:42:56.361Z,74.96
2019-01-26T12:44:00.849Z,74.70
2019-01-26T12:45:06.913Z,74.74
2019-01-26T12:46:12.061Z,75.12
2019-01-26T12:47:17.050Z,74.96
2019-01-26T12:48:22.008Z,75.12
2019-01-26T12:49:29.650Z,75.09
2019-01-26T12:50:34.022Z,75.14
2019-01-26T12:51:39.140Z,75.05
2019-01-26T12:52:43.634Z,75.29
2019-01-26T12:53:48.770Z,75.06
2019-01-26T12:54:53.555Z,75.24
2019-01-26T12:55:59.166Z,75.50
2019-01-26T12:57:03.938Z,75.58
2019-01-26T12:58:08.490Z,75.82
2019-01-26T12:59:13.508Z,76.22
2019-01-26T13:00:19.723Z,76.14
2019-01-26T13:01:24.528Z,76.12
2019-01-26T13:02:29.835Z,75.81
2019-01-26T13:03:34.651Z,75.72
2019-01-26T13:04:39.828Z,75.99
2019-01-26T13:05:44.985Z,76.18
2019-01-26T13:06:49.770Z,76.24
2019-01-26T13:07:54.952Z,76.57
2019-01-26T13:08:59.759Z,76.98
2019-01-26T13:10:04.554Z,77.16
2019-01-26T13:11:20.709Z,77.30
2019-01-26T13:12:25.482Z,77.65
2019-01-26T13:13:30.581Z,77.65
2019-01-26T13:14:35.137Z,77.85
2019-01-26T13:15:40.557Z,77.96
2019-01-26T13:16:45.351Z,78.26
2019-01-26T13:17:50.148Z,78.29
2019-01-26T13:18:54.962Z,78.27
2019-01-26T13:19:59.742Z,78.12
2019-01-26T13:21:04.532Z,78.40
2019-01-26T13:22:09.639Z,78.62
2019-01-26T13:23:14.450Z,78.83
2019-01-26T13:24:19.245Z,78.37
2019-01-26T13:25:24.462Z,78.14
2019-01-26T13:26:29.238Z,78.03
2019-01-26T13:27:34.008Z,77.93
2019-01-26T13:28:38.784Z,77.99
2019-01-26T13:29:44.373Z,77.93
2019-01-26T13:30:49.566Z,77.82
2019-01-26T13:31:54.313Z,77.34
2019-01-26T13:32:59.141Z,77.14
2019-01-26T13:34:04.451Z,76.98
2019-01-26T13:35:09.968Z,77.08
2019-01-26T13:36:18.154Z,77.14
2019-01-26T13:37:22.923Z,76.96
2019-01-26T13:38:27.817Z,77.07
2019-01-26T13:39:33.258Z,76.96
2019-01-26T13:40:38.032Z,77.11
2019-01-26T13:41:43.113Z,76.81
2019-01-26T13:42:48.218Z,76.99
2019-01-26T13:43:52.979Z,76.79
2019-01-26T13:44:57.770Z,76.77
2019-01-26T13:46:02.972Z,76.91
2019-01-26T13:47:07.795Z,76.92
2019-01-26T13:48:12.875Z,76.91
2019-01-26T13:49:17.772Z,76.86
2019-01-26T13:50:22.619Z,76.83
2019-01-26T13:51:27.097Z,76.88
2019-01-26T13:52:32.297Z,76.90
2019-01-26T13:53:38.225Z,76.58
2019-01-26T13:54:43.189Z,76.64
2019-01-26T13:55:48.688Z,76.68
2019-01-26T13:56:53.479Z,76.52
2019-01-26T13:57:58.275Z,76.53
2019-01-26T13:59:02.762Z,76.69
2019-01-26T14:00:12.874Z,76.69
2019-01-26T14:01:17.674Z,76.90
2019-01-26T14:02:22.426Z,76.92
2019-01-26T14:03:26.906Z,76.83
2019-01-26T14:04:31.381Z,76.91
2019-01-26T14:05:37.078Z,77.21